METAR Data
IDs: Format: Raw Decoded Include TAF

Data at: 0021 UTC 26 Oct 2021

PAWS 252356Z AUTO 23003KT 10SM CLR 04/M02 A2906 RMK AO2 SLP846 T00441017 10044 21028 56004
PAWS 252256Z AUTO 00000KT 10SM CLR 04/M01 A2906 RMK AO2 SLP847 T00391011
PAWS 252156Z AUTO 25003KT 10SM CLR 03/M01 A2907 RMK AO2 SLP847 T00331006
PAWS 252056Z AUTO 00000KT 10SM CLR 01/M02 A2907 RMK AO2 SLP850 T00061017 58004 FZRANO
PAWS 251956Z AUTO 00000KT 10SM CLR M02/M02 A2908 RMK AO2 SLP852 T10171022 FZRANO
PAWS 251856Z AUTO 00000KT 10SM CLR M03/M03 A2908 RMK AO2 SLP853 T10281033 FZRANO
PAWS 251756Z AUTO 00000KT 10SM OVC095 M02/M03 A2908 RMK AO2 SLP855 T10221028 11022 21033 58010 FZRANO
PAWS 251656Z AUTO 00000KT 10SM OVC100 M03/M03 A2909 RMK AO2 SLP858 T10281033 FZRANO
PAWS 251556Z AUTO 00000KT 10SM CLR M03/M04 A2911 RMK AO2 SLP863 T10331044 FZRANO
PAWS 251456Z AUTO 28005KT 10SM BKN090 M02/M03 A2911 RMK AO2 SLP865 T10221033 56015 FZRANO
PAWS 251356Z AUTO 00000KT 10SM OVC110 M03/M03 A2913 RMK AO2 SLP868 T10281033 FZRANO
PAWS 251256Z AUTO 00000KT 10SM OVC110 M02/M03 A2914 RMK AO2 SLP873 T10221033 FZRANO
PAWS 251156Z AUTO 00000KT 10SM FEW120 M03/M04 A2916 RMK AO2 SLP878 T10281039 10033 21028 58018 FZRANO
PAWS 251056Z AUTO 31003KT 10SM OVC110 M01/M03 A2919 RMK AO2 SLP888 T10061033 FZRANO
PAWS 250956Z AUTO 00000KT 10SM BKN110 02/M04 A2920 RMK AO2 SLP893 T00171044 FZRANO
PAWS 250856Z AUTO 05005KT 10SM CLR 03/M04 A2921 RMK AO2 SLP897 T00281044 400891022 56017
PAWS 250756Z AUTO 08006KT 10SM CLR 03/M04 A2922 RMK AO2 SLP900 T00331039
PAWS 250656Z AUTO 08004KT 10SM CLR M02/M03 A2924 RMK AO2 SLP907 T10221033 FZRANO
PAWS 250556Z AUTO 00000KT 10SM CLR M02/M03 A2926 RMK AO2 SLP915 T10221033 10089 21022 58020 FZRANO
PAWS 250456Z AUTO 00000KT 10SM CLR 01/M01 A2929 RMK AO2 SLP923 T00111011 FZRANO
PAWS 250356Z AUTO 00000KT 10SM CLR 02/M01 A2931 RMK AO2 SLP928 T00171006 FZRANO
PAWS 250256Z AUTO 00000KT 10SM CLR 04/01 A2932 RMK AO2 SLP934 T00390006 57017
PAWS 250156Z AUTO 00000KT 10SM CLR 07/01 A2934 RMK AO2 SLP940 T00670006
PAWS 250056Z AUTO 00000KT 10SM CLR 08/01 A2935 RMK AO2 SLP944 T00830011
PAWS 242356Z AUTO 00000KT 10SM OVC075 08/02 A2937 RMK AO2 SLP951 T00830017 10089 20056 58015
PAWS 242256Z AUTO 00000KT 10SM FEW120 08/02 A2939 RMK AO2 SLP958 T00830017
PAWS 242156Z AUTO 19005KT 10SM CLR 09/02 A2941 RMK AO2 SLP963 T00890017
PAWS 242056Z AUTO 05006KT 10SM CLR 08/01 A2941 RMK AO2 SLP965 T00780011 58004
PAWS 241956Z AUTO 10007KT 060V140 10SM CLR 07/01 A2942 RMK AO2 SLP968 T00720006
PAWS 241856Z AUTO 09007KT 10SM OVC070 07/01 A2942 RMK AO2 SLP967 T00670011
PAWS 241756Z AUTO 08009KT 10SM OVC080 06/01 A2942 RMK AO2 SLP969 60000 T00560011 10061 20028 51003
PAWS 241656Z AUTO 06008KT 10SM OVC085 06/02 A2942 RMK AO2 SLP969 T00560017
PAWS 241556Z AUTO 07005KT 10SM OVC080 05/02 A2942 RMK AO2 SLP969 T00500017
PAWS 241456Z AUTO 07004KT 10SM OVC080 06/02 A2942 RMK AO2 SLP966 60000 T00560017 51008
PAWS 241356Z AUTO 07007KT 10SM OVC070 06/02 A2941 RMK AO2 RAE39 SLP965 P0000 T00560017
PAWS 241256Z AUTO 07004KT 10SM -RA OVC050 04/01 A2940 RMK AO2 RAB02 SLP961 P0000 T00440011